sensor_id;sensor_type;location;lat;lon;timestamp;P1;P2;P0
30342;PMS5003;17145;49.902;8.680;2024-01-30T00:01:35;12;11;
30342;PMS5003;17145;49.902;8.680;2024-01-30T00:04:02;12;12;
30342;PMS5003;17145;49.902;8.680;2024-01-30T00:06:30;12;12;
30342;PMS5003;17145;49.902;8.680;2024-01-30T00:08:57;12;12;
30342;PMS5003;17145;49.902;8.680;2024-01-30T00:11:25;15;11;
30342;PMS5003;17145;49.902;8.680;2024-01-30T00:13:52;13;11;
30342;PMS5003;17145;49.902;8.680;2024-01-30T00:16:21;10;8;
30342;PMS5003;17145;49.902;8.680;2024-01-30T00:18:48;10;8;
30342;PMS5003;17145;49.902;8.680;2024-01-30T00:21:16;10;8;
30342;PMS5003;17145;49.902;8.680;2024-01-30T00:23:43;8;7;
30342;PMS5003;17145;49.902;8.680;2024-01-30T00:26:10;10;8;
30342;PMS5003;17145;49.902;8.680;2024-01-30T00:28:38;12;8;
30342;PMS5003;17145;49.902;8.680;2024-01-30T00:31:06;7;7;
30342;PMS5003;17145;49.902;8.680;2024-01-30T00:33:33;9;8;
30342;PMS5003;17145;49.902;8.680;2024-01-30T00:36:00;8;8;
30342;PMS5003;17145;49.902;8.680;2024-01-30T00:38:28;7;6;
30342;PMS5003;17145;49.902;8.680;2024-01-30T00:40:55;9;8;
30342;PMS5003;17145;49.902;8.680;2024-01-30T00:43:22;8;8;
30342;PMS5003;17145;49.902;8.680;2024-01-30T00:45:50;9;8;
30342;PMS5003;17145;49.902;8.680;2024-01-30T00:48:17;8;7;
30342;PMS5003;17145;49.902;8.680;2024-01-30T00:50:45;10;8;
30342;PMS5003;17145;49.902;8.680;2024-01-30T00:53:13;6;6;
30342;PMS5003;17145;49.902;8.680;2024-01-30T00:55:41;12;9;
30342;PMS5003;17145;49.902;8.680;2024-01-30T00:58:08;11;9;
30342;PMS5003;17145;49.902;8.680;2024-01-30T01:00:35;7;7;
30342;PMS5003;17145;49.902;8.680;2024-01-30T01:03:03;8;8;
30342;PMS5003;17145;49.902;8.680;2024-01-30T01:05:30;12;8;
30342;PMS5003;17145;49.902;8.680;2024-01-30T01:07:58;7;6;
30342;PMS5003;17145;49.902;8.680;2024-01-30T01:10:26;11;8;
30342;PMS5003;17145;49.902;8.680;2024-01-30T01:12:53;7;7;
30342;PMS5003;17145;49.902;8.680;2024-01-30T01:15:21;7;6;
30342;PMS5003;17145;49.902;8.680;2024-01-30T01:17:48;8;7;
30342;PMS5003;17145;49.902;8.680;2024-01-30T01:20:16;6;4;
30342;PMS5003;17145;49.902;8.680;2024-01-30T01:22:43;6;6;
30342;PMS5003;17145;49.902;8.680;2024-01-30T01:25:11;6;5;
30342;PMS5003;17145;49.902;8.680;2024-01-30T01:27:38;4;4;
30342;PMS5003;17145;49.902;8.680;2024-01-30T01:30:06;7;6;
30342;PMS5003;17145;49.902;8.680;2024-01-30T01:32:35;7;6;
30342;PMS5003;17145;49.902;8.680;2024-01-30T01:35:03;8;7;
30342;PMS5003;17145;49.902;8.680;2024-01-30T01:37:30;7;7;
30342;PMS5003;17145;49.902;8.680;2024-01-30T01:39:58;6;6;
30342;PMS5003;17145;49.902;8.680;2024-01-30T01:42:26;9;8;
30342;PMS5003;17145;49.902;8.680;2024-01-30T01:44:54;7;7;
30342;PMS5003;17145;49.902;8.680;2024-01-30T01:47:21;11;7;
30342;PMS5003;17145;49.902;8.680;2024-01-30T01:49:49;9;8;
30342;PMS5003;17145;49.902;8.680;2024-01-30T01:52:18;9;7;
30342;PMS5003;17145;49.902;8.680;2024-01-30T01:54:45;9;8;
30342;PMS5003;17145;49.902;8.680;2024-01-30T01:57:12;9;6;
30342;PMS5003;17145;49.902;8.680;2024-01-30T01:59:40;6;4;
30342;PMS5003;17145;49.902;8.680;2024-01-30T02:02:08;6;6;
30342;PMS5003;17145;49.902;8.680;2024-01-30T02:04:39;12;9;
30342;PMS5003;17145;49.902;8.680;2024-01-30T02:07:07;7;7;
30342;PMS5003;17145;49.902;8.680;2024-01-30T02:09:34;8;8;
30342;PMS5003;17145;49.902;8.680;2024-01-30T02:12:01;6;6;
30342;PMS5003;17145;49.902;8.680;2024-01-30T02:14:29;7;7;
30342;PMS5003;17145;49.902;8.680;2024-01-30T02:16:56;7;6;
30342;PMS5003;17145;49.902;8.680;2024-01-30T02:19:24;6;6;
30342;PMS5003;17145;49.902;8.680;2024-01-30T02:21:51;8;6;
30342;PMS5003;17145;49.902;8.680;2024-01-30T02:24:20;6;6;
30342;PMS5003;17145;49.902;8.680;2024-01-30T02:26:47;7;6;
30342;PMS5003;17145;49.902;8.680;2024-01-30T02:29:14;4;4;
30342;PMS5003;17145;49.902;8.680;2024-01-30T02:31:42;7;6;
30342;PMS5003;17145;49.902;8.680;2024-01-30T02:34:09;7;6;
30342;PMS5003;17145;49.902;8.680;2024-01-30T02:36:37;7;4;
30342;PMS5003;17145;49.902;8.680;2024-01-30T02:39:04;3;3;
30342;PMS5003;17145;49.902;8.680;2024-01-30T02:41:32;4;4;
30342;PMS5003;17145;49.902;8.680;2024-01-30T02:43:59;7;6;
30342;PMS5003;17145;49.902;8.680;2024-01-30T02:46:27;9;9;
30342;PMS5003;17145;49.902;8.680;2024-01-30T02:48:54;13;8;
30342;PMS5003;17145;49.902;8.680;2024-01-30T02:51:22;6;6;
30342;PMS5003;17145;49.902;8.680;2024-01-30T02:53:49;8;7;
30342;PMS5003;17145;49.902;8.680;2024-01-30T02:56:17;4;4;
30342;PMS5003;17145;49.902;8.680;2024-01-30T02:58:44;7;6;
30342;PMS5003;17145;49.902;8.680;2024-01-30T03:01:12;18;7;
30342;PMS5003;17145;49.902;8.680;2024-01-30T03:03:39;6;6;
30342;PMS5003;17145;49.902;8.680;2024-01-30T03:06:07;4;4;
30342;PMS5003;17145;49.902;8.680;2024-01-30T03:08:34;4;4;
30342;PMS5003;17145;49.902;8.680;2024-01-30T03:11:02;8;6;
30342;PMS5003;17145;49.902;8.680;2024-01-30T03:13:29;6;6;
30342;PMS5003;17145;49.902;8.680;2024-01-30T03:15:56;6;6;
30342;PMS5003;17145;49.902;8.680;2024-01-30T03:18:24;8;7;
30342;PMS5003;17145;49.902;8.680;2024-01-30T03:20:52;6;6;
30342;PMS5003;17145;49.902;8.680;2024-01-30T03:23:19;9;7;
30342;PMS5003;17145;49.902;8.680;2024-01-30T03:25:46;8;7;
30342;PMS5003;17145;49.902;8.680;2024-01-30T03:28:14;9;8;
30342;PMS5003;17145;49.902;8.680;2024-01-30T03:30:42;7;7;
30342;PMS5003;17145;49.902;8.680;2024-01-30T03:33:09;13;7;
30342;PMS5003;17145;49.902;8.680;2024-01-30T03:35:37;7;7;
30342;PMS5003;17145;49.902;8.680;2024-01-30T03:38:04;10;7;
30342;PMS5003;17145;49.902;8.680;2024-01-30T03:40:31;3;3;
30342;PMS5003;17145;49.902;8.680;2024-01-30T03:42:59;7;6;
30342;PMS5003;17145;49.902;8.680;2024-01-30T03:45:26;7;5;
30342;PMS5003;17145;49.902;8.680;2024-01-30T03:47:53;6;6;
30342;PMS5003;17145;49.902;8.680;2024-01-30T03:50:21;7;6;
30342;PMS5003;17145;49.902;8.680;2024-01-30T03:52:48;7;7;
30342;PMS5003;17145;49.902;8.680;2024-01-30T03:55:15;6;5;
30342;PMS5003;17145;49.902;8.680;2024-01-30T03:57:43;6;6;
30342;PMS5003;17145;49.902;8.680;2024-01-30T04:00:11;10;8;
30342;PMS5003;17145;49.902;8.680;2024-01-30T04:02:39;12;6;
30342;PMS5003;17145;49.902;8.680;2024-01-30T04:05:07;6;5;
30342;PMS5003;17145;49.902;8.680;2024-01-30T04:07:35;6;5;
30342;PMS5003;17145;49.902;8.680;2024-01-30T04:10:02;7;6;
30342;PMS5003;17145;49.902;8.680;2024-01-30T04:12:30;5;5;
30342;PMS5003;17145;49.902;8.680;2024-01-30T04:14:57;10;10;
30342;PMS5003;17145;49.902;8.680;2024-01-30T04:17:24;12;10;
30342;PMS5003;17145;49.902;8.680;2024-01-30T04:19:52;8;8;
30342;PMS5003;17145;49.902;8.680;2024-01-30T04:22:19;15;12;
30342;PMS5003;17145;49.902;8.680;2024-01-30T04:24:47;17;14;
30342;PMS5003;17145;49.902;8.680;2024-01-30T04:27:14;22;17;
30342;PMS5003;17145;49.902;8.680;2024-01-30T04:29:41;20;20;
30342;PMS5003;17145;49.902;8.680;2024-01-30T04:32:09;28;28;
30342;PMS5003;17145;49.902;8.680;2024-01-30T04:34:37;7;7;
30342;PMS5003;17145;49.902;8.680;2024-01-30T04:37:04;11;8;
30342;PMS5003;17145;49.902;8.680;2024-01-30T04:39:32;10;7;
30342;PMS5003;17145;49.902;8.680;2024-01-30T04:42:00;6;5;
30342;PMS5003;17145;49.902;8.680;2024-01-30T04:44:29;10;7;
30342;PMS5003;17145;49.902;8.680;2024-01-30T04:46:56;9;7;
30342;PMS5003;17145;49.902;8.680;2024-01-30T04:49:23;9;9;
30342;PMS5003;17145;49.902;8.680;2024-01-30T04:51:51;10;10;
30342;PMS5003;17145;49.902;8.680;2024-01-30T04:54:18;9;9;
30342;PMS5003;17145;49.902;8.680;2024-01-30T04:56:46;16;15;
30342;PMS5003;17145;49.902;8.680;2024-01-30T04:59:13;15;14;
30342;PMS5003;17145;49.902;8.680;2024-01-30T05:01:40;14;13;
30342;PMS5003;17145;49.902;8.680;2024-01-30T05:04:08;13;11;
30342;PMS5003;17145;49.902;8.680;2024-01-30T05:06:36;10;9;
30342;PMS5003;17145;49.902;8.680;2024-01-30T05:09:04;11;10;
30342;PMS5003;17145;49.902;8.680;2024-01-30T05:11:31;9;9;
30342;PMS5003;17145;49.902;8.680;2024-01-30T05:14:03;7;7;
30342;PMS5003;17145;49.902;8.680;2024-01-30T05:16:30;6;6;
30342;PMS5003;17145;49.902;8.680;2024-01-30T05:18:58;7;7;
30342;PMS5003;17145;49.902;8.680;2024-01-30T05:21:26;9;7;
30342;PMS5003;17145;49.902;8.680;2024-01-30T05:23:53;7;7;
30342;PMS5003;17145;49.902;8.680;2024-01-30T05:26:20;6;6;
30342;PMS5003;17145;49.902;8.680;2024-01-30T05:28:47;9;8;
30342;PMS5003;17145;49.902;8.680;2024-01-30T05:31:15;5;5;
30342;PMS5003;17145;49.902;8.680;2024-01-30T05:33:42;6;5;
30342;PMS5003;17145;49.902;8.680;2024-01-30T05:36:11;5;5;
30342;PMS5003;17145;49.902;8.680;2024-01-30T05:38:39;6;4;
30342;PMS5003;17145;49.902;8.680;2024-01-30T05:41:07;8;6;
30342;PMS5003;17145;49.902;8.680;2024-01-30T05:43:35;18;8;
30342;PMS5003;17145;49.902;8.680;2024-01-30T05:46:03;6;6;
30342;PMS5003;17145;49.902;8.680;2024-01-30T05:48:30;12;6;
30342;PMS5003;17145;49.902;8.680;2024-01-30T05:50:58;9;8;
30342;PMS5003;17145;49.902;8.680;2024-01-30T05:53:25;5;5;
30342;PMS5003;17145;49.902;8.680;2024-01-30T05:55:52;6;5;
30342;PMS5003;17145;49.902;8.680;2024-01-30T05:58:20;8;5;
30342;PMS5003;17145;49.902;8.680;2024-01-30T06:00:47;6;6;
30342;PMS5003;17145;49.902;8.680;2024-01-30T06:03:15;6;6;
30342;PMS5003;17145;49.902;8.680;2024-01-30T06:05:42;5;4;
30342;PMS5003;17145;49.902;8.680;2024-01-30T06:08:11;6;6;
30342;PMS5003;17145;49.902;8.680;2024-01-30T06:10:38;5;5;
30342;PMS5003;17145;49.902;8.680;2024-01-30T06:13:06;6;6;
30342;PMS5003;17145;49.902;8.680;2024-01-30T06:15:33;8;6;
30342;PMS5003;17145;49.902;8.680;2024-01-30T06:18:00;5;4;
30342;PMS5003;17145;49.902;8.680;2024-01-30T06:20:28;5;5;
30342;PMS5003;17145;49.902;8.680;2024-01-30T06:22:55;6;6;
30342;PMS5003;17145;49.902;8.680;2024-01-30T06:25:23;6;6;
30342;PMS5003;17145;49.902;8.680;2024-01-30T06:27:50;10;9;
30342;PMS5003;17145;49.902;8.680;2024-01-30T06:30:18;8;8;
30342;PMS5003;17145;49.902;8.680;2024-01-30T06:32:45;9;6;
30342;PMS5003;17145;49.902;8.680;2024-01-30T06:35:13;8;8;
30342;PMS5003;17145;49.902;8.680;2024-01-30T06:37:40;9;6;
30342;PMS5003;17145;49.902;8.680;2024-01-30T06:40:08;9;8;
30342;PMS5003;17145;49.902;8.680;2024-01-30T06:42:36;9;8;
30342;PMS5003;17145;49.902;8.680;2024-01-30T06:45:03;9;6;
30342;PMS5003;17145;49.902;8.680;2024-01-30T06:47:31;9;6;
30342;PMS5003;17145;49.902;8.680;2024-01-30T06:49:58;6;6;
30342;PMS5003;17145;49.902;8.680;2024-01-30T06:52:26;9;6;
30342;PMS5003;17145;49.902;8.680;2024-01-30T06:54:53;6;6;
30342;PMS5003;17145;49.902;8.680;2024-01-30T06:57:21;5;5;
30342;PMS5003;17145;49.902;8.680;2024-01-30T06:59:48;6;5;
30342;PMS5003;17145;49.902;8.680;2024-01-30T07:02:15;5;5;
30342;PMS5003;17145;49.902;8.680;2024-01-30T07:04:43;5;5;
30342;PMS5003;17145;49.902;8.680;2024-01-30T07:07:10;8;5;
30342;PMS5003;17145;49.902;8.680;2024-01-30T07:09:37;5;5;
30342;PMS5003;17145;49.902;8.680;2024-01-30T07:12:05;5;4;
30342;PMS5003;17145;49.902;8.680;2024-01-30T07:14:33;8;6;
30342;PMS5003;17145;49.902;8.680;2024-01-30T07:17:00;8;6;
30342;PMS5003;17145;49.902;8.680;2024-01-30T07:19:27;8;6;
30342;PMS5003;17145;49.902;8.680;2024-01-30T07:21:56;6;6;
30342;PMS5003;17145;49.902;8.680;2024-01-30T07:24:23;8;4;
30342;PMS5003;17145;49.902;8.680;2024-01-30T07:26:51;6;6;
30342;PMS5003;17145;49.902;8.680;2024-01-30T07:29:19;5;5;
30342;PMS5003;17145;49.902;8.680;2024-01-30T07:31:46;5;5;
30342;PMS5003;17145;49.902;8.680;2024-01-30T07:34:13;5;5;
30342;PMS5003;17145;49.902;8.680;2024-01-30T07:36:41;7;7;
30342;PMS5003;17145;49.902;8.680;2024-01-30T07:39:08;8;7;
30342;PMS5003;17145;49.902;8.680;2024-01-30T07:41:36;7;5;
30342;PMS5003;17145;49.902;8.680;2024-01-30T07:44:03;7;7;
30342;PMS5003;17145;49.902;8.680;2024-01-30T07:46:31;5;5;
30342;PMS5003;17145;49.902;8.680;2024-01-30T07:48:58;7;7;
30342;PMS5003;17145;49.902;8.680;2024-01-30T07:51:25;5;5;
30342;PMS5003;17145;49.902;8.680;2024-01-30T07:53:53;7;7;
30342;PMS5003;17145;49.902;8.680;2024-01-30T07:56:20;5;5;
30342;PMS5003;17145;49.902;8.680;2024-01-30T07:58:48;8;7;
30342;PMS5003;17145;49.902;8.680;2024-01-30T08:01:15;7;7;
30342;PMS5003;17145;49.902;8.680;2024-01-30T08:03:43;5;5;
30342;PMS5003;17145;49.902;8.680;2024-01-30T08:06:10;5;5;
30342;PMS5003;17145;49.902;8.680;2024-01-30T08:08:39;8;7;
30342;PMS5003;17145;49.902;8.680;2024-01-30T08:11:06;7;7;
30342;PMS5003;17145;49.902;8.680;2024-01-30T08:13:34;5;5;
30342;PMS5003;17145;49.902;8.680;2024-01-30T08:16:02;5;5;
30342;PMS5003;17145;49.902;8.680;2024-01-30T08:18:29;9;8;
30342;PMS5003;17145;49.902;8.680;2024-01-30T08:20:57;8;7;
30342;PMS5003;17145;49.902;8.680;2024-01-30T08:23:24;8;7;
30342;PMS5003;17145;49.902;8.680;2024-01-30T08:25:51;8;7;
30342;PMS5003;17145;49.902;8.680;2024-01-30T08:28:19;8;8;
30342;PMS5003;17145;49.902;8.680;2024-01-30T08:30:46;12;8;
30342;PMS5003;17145;49.902;8.680;2024-01-30T08:33:14;8;7;
30342;PMS5003;17145;49.902;8.680;2024-01-30T08:35:41;12;11;
30342;PMS5003;17145;49.902;8.680;2024-01-30T08:38:08;9;9;
30342;PMS5003;17145;49.902;8.680;2024-01-30T08:40:35;11;9;
30342;PMS5003;17145;49.902;8.680;2024-01-30T08:43:03;11;9;
30342;PMS5003;17145;49.902;8.680;2024-01-30T08:45:31;12;9;
30342;PMS5003;17145;49.902;8.680;2024-01-30T08:47:59;9;9;
30342;PMS5003;17145;49.902;8.680;2024-01-30T08:50:26;9;9;
30342;PMS5003;17145;49.902;8.680;2024-01-30T08:52:54;12;12;
30342;PMS5003;17145;49.902;8.680;2024-01-30T08:55:21;8;8;
30342;PMS5003;17145;49.902;8.680;2024-01-30T08:57:49;11;8;
30342;PMS5003;17145;49.902;8.680;2024-01-30T09:00:16;14;12;
30342;PMS5003;17145;49.902;8.680;2024-01-30T09:02:44;14;12;
30342;PMS5003;17145;49.902;8.680;2024-01-30T09:05:12;9;9;
30342;PMS5003;17145;49.902;8.680;2024-01-30T09:07:39;9;9;
30342;PMS5003;17145;49.902;8.680;2024-01-30T09:10:07;8;8;
30342;PMS5003;17145;49.902;8.680;2024-01-30T09:12:34;14;11;
30342;PMS5003;17145;49.902;8.680;2024-01-30T09:15:02;11;9;
30342;PMS5003;17145;49.902;8.680;2024-01-30T09:17:29;11;11;
30342;PMS5003;17145;49.902;8.680;2024-01-30T09:19:57;12;11;
30342;PMS5003;17145;49.902;8.680;2024-01-30T09:22:24;11;11;
30342;PMS5003;17145;49.902;8.680;2024-01-30T09:24:51;17;14;
30342;PMS5003;17145;49.902;8.680;2024-01-30T09:27:19;14;12;
30342;PMS5003;17145;49.902;8.680;2024-01-30T09:29:46;11;11;
30342;PMS5003;17145;49.902;8.680;2024-01-30T09:32:14;16;12;
30342;PMS5003;17145;49.902;8.680;2024-01-30T09:34:41;11;11;
30342;PMS5003;17145;49.902;8.680;2024-01-30T09:37:09;14;12;
30342;PMS5003;17145;49.902;8.680;2024-01-30T09:39:36;15;14;
30342;PMS5003;17145;49.902;8.680;2024-01-30T09:42:05;15;14;
30342;PMS5003;17145;49.902;8.680;2024-01-30T09:44:38;16;14;
30342;PMS5003;17145;49.902;8.680;2024-01-30T09:47:09;15;14;
30342;PMS5003;17145;49.902;8.680;2024-01-30T09:49:37;19;15;
30342;PMS5003;17145;49.902;8.680;2024-01-30T09:52:05;15;15;
30342;PMS5003;17145;49.902;8.680;2024-01-30T09:54:34;19;18;
30342;PMS5003;17145;49.902;8.680;2024-01-30T09:57:03;18;15;
30342;PMS5003;17145;49.902;8.680;2024-01-30T09:59:31;19;17;
30342;PMS5003;17145;49.902;8.680;2024-01-30T10:01:58;17;17;
30342;PMS5003;17145;49.902;8.680;2024-01-30T10:04:27;22;19;
30342;PMS5003;17145;49.902;8.680;2024-01-30T10:06:54;24;22;
30342;PMS5003;17145;49.902;8.680;2024-01-30T10:09:22;19;18;
30342;PMS5003;17145;49.902;8.680;2024-01-30T10:11:50;24;24;
30342;PMS5003;17145;49.902;8.680;2024-01-30T10:14:18;29;22;
30342;PMS5003;17145;49.902;8.680;2024-01-30T10:16:46;37;24;
30342;PMS5003;17145;49.902;8.680;2024-01-30T10:19:14;22;22;
30342;PMS5003;17145;49.902;8.680;2024-01-30T10:21:41;21;21;
30342;PMS5003;17145;49.902;8.680;2024-01-30T10:24:09;21;19;
30342;PMS5003;17145;49.902;8.680;2024-01-30T10:26:37;27;25;
30342;PMS5003;17145;49.902;8.680;2024-01-30T10:29:05;25;24;
30342;PMS5003;17145;49.902;8.680;2024-01-30T10:31:32;27;24;
30342;PMS5003;17145;49.902;8.680;2024-01-30T10:34:00;31;24;
30342;PMS5003;17145;49.902;8.680;2024-01-30T10:36:28;25;25;
30342;PMS5003;17145;49.902;8.680;2024-01-30T10:38:57;30;24;
30342;PMS5003;17145;49.902;8.680;2024-01-30T10:41:27;22;20;
30342;PMS5003;17145;49.902;8.680;2024-01-30T10:44:02;20;17;
30342;PMS5003;17145;49.902;8.680;2024-01-30T10:46:35;19;15;
30342;PMS5003;17145;49.902;8.680;2024-01-30T10:49:05;21;18;
30342;PMS5003;17145;49.902;8.680;2024-01-30T10:51:32;27;24;
30342;PMS5003;17145;49.902;8.680;2024-01-30T10:54:03;30;25;
30342;PMS5003;17145;49.902;8.680;2024-01-30T10:56:33;27;25;
30342;PMS5003;17145;49.902;8.680;2024-01-30T10:59:01;31;25;
30342;PMS5003;17145;49.902;8.680;2024-01-30T11:01:29;25;21;
30342;PMS5003;17145;49.902;8.680;2024-01-30T11:03:57;21;21;
30342;PMS5003;17145;49.902;8.680;2024-01-30T11:06:25;34;28;
30342;PMS5003;17145;49.902;8.680;2024-01-30T11:09:01;28;28;
30342;PMS5003;17145;49.902;8.680;2024-01-30T11:11:29;32;30;
30342;PMS5003;17145;49.902;8.680;2024-01-30T11:14:00;34;31;
30342;PMS5003;17145;49.902;8.680;2024-01-30T11:16:30;32;26;
30342;PMS5003;17145;49.902;8.680;2024-01-30T11:19:00;40;34;
30342;PMS5003;17145;49.902;8.680;2024-01-30T11:21:30;28;25;
30342;PMS5003;17145;49.902;8.680;2024-01-30T11:23:57;44;31;
30342;PMS5003;17145;49.902;8.680;2024-01-30T11:26:27;25;25;
30342;PMS5003;17145;49.902;8.680;2024-01-30T11:28:55;31;29;
30342;PMS5003;17145;49.902;8.680;2024-01-30T11:31:22;31;28;
30342;PMS5003;17145;49.902;8.680;2024-01-30T11:33:52;35;29;
30342;PMS5003;17145;49.902;8.680;2024-01-30T11:36:21;35;32;
30342;PMS5003;17145;49.902;8.680;2024-01-30T11:38:52;47;32;
30342;PMS5003;17145;49.902;8.680;2024-01-30T11:41:20;32;29;
30342;PMS5003;17145;49.902;8.680;2024-01-30T11:43:51;44;35;
30342;PMS5003;17145;49.902;8.680;2024-01-30T11:46:19;35;32;
30342;PMS5003;17145;49.902;8.680;2024-01-30T11:48:46;38;38;
30342;PMS5003;17145;49.902;8.680;2024-01-30T11:51:14;41;37;
30342;PMS5003;17145;49.902;8.680;2024-01-30T11:53:41;43;32;
30342;PMS5003;17145;49.902;8.680;2024-01-30T11:56:09;37;34;
30342;PMS5003;17145;49.902;8.680;2024-01-30T11:58:42;38;34;
30342;PMS5003;17145;49.902;8.680;2024-01-30T12:01:10;58;37;
30342;PMS5003;17145;49.902;8.680;2024-01-30T12:03:37;55;34;
30342;PMS5003;17145;49.902;8.680;2024-01-30T12:06:05;31;31;
30342;PMS5003;17145;49.902;8.680;2024-01-30T12:08:33;34;32;
30342;PMS5003;17145;49.902;8.680;2024-01-30T12:11:00;38;32;
30342;PMS5003;17145;49.902;8.680;2024-01-30T12:13:28;48;31;
30342;PMS5003;17145;49.902;8.680;2024-01-30T12:15:56;37;35;
30342;PMS5003;17145;49.902;8.680;2024-01-30T12:18:23;32;32;
30342;PMS5003;17145;49.902;8.680;2024-01-30T12:20:58;35;31;
30342;PMS5003;17145;49.902;8.680;2024-01-30T12:23:26;51;37;
30342;PMS5003;17145;49.902;8.680;2024-01-30T12:25:54;37;35;
30342;PMS5003;17145;49.902;8.680;2024-01-30T12:28:21;34;28;
30342;PMS5003;17145;49.902;8.680;2024-01-30T12:30:49;35;33;
30342;PMS5003;17145;49.902;8.680;2024-01-30T12:33:16;46;33;
30342;PMS5003;17145;49.902;8.680;2024-01-30T12:35:45;36;33;
30342;PMS5003;17145;49.902;8.680;2024-01-30T12:38:13;51;34;
30342;PMS5003;17145;49.902;8.680;2024-01-30T12:40:41;36;33;
30342;PMS5003;17145;49.902;8.680;2024-01-30T12:43:08;44;34;
30342;PMS5003;17145;49.902;8.680;2024-01-30T12:45:36;46;34;
30342;PMS5003;17145;49.902;8.680;2024-01-30T12:48:03;41;30;
30342;PMS5003;17145;49.902;8.680;2024-01-30T12:50:31;43;28;
30342;PMS5003;17145;49.902;8.680;2024-01-30T12:52:58;31;30;
30342;PMS5003;17145;49.902;8.680;2024-01-30T12:55:26;40;34;
30342;PMS5003;17145;49.902;8.680;2024-01-30T12:57:53;43;33;
30342;PMS5003;17145;49.902;8.680;2024-01-30T13:00:21;34;31;
30342;PMS5003;17145;49.902;8.680;2024-01-30T13:02:48;40;34;
30342;PMS5003;17145;49.902;8.680;2024-01-30T13:05:16;34;31;
30342;PMS5003;17145;49.902;8.680;2024-01-30T13:07:44;34;33;
30342;PMS5003;17145;49.902;8.680;2024-01-30T13:10:12;34;33;
30342;PMS5003;17145;49.902;8.680;2024-01-30T13:12:39;38;31;
30342;PMS5003;17145;49.902;8.680;2024-01-30T13:15:06;34;30;
30342;PMS5003;17145;49.902;8.680;2024-01-30T13:17:34;36;34;
30342;PMS5003;17145;49.902;8.680;2024-01-30T13:20:02;39;33;
30342;PMS5003;17145;49.902;8.680;2024-01-30T13:22:29;37;29;
30342;PMS5003;17145;49.902;8.680;2024-01-30T13:24:57;30;28;
30342;PMS5003;17145;49.902;8.680;2024-01-30T13:27:24;33;28;
30342;PMS5003;17145;49.902;8.680;2024-01-30T13:29:52;41;28;
30342;PMS5003;17145;49.902;8.680;2024-01-30T13:32:19;28;28;
30342;PMS5003;17145;49.902;8.680;2024-01-30T13:34:47;31;28;
30342;PMS5003;17145;49.902;8.680;2024-01-30T13:37:14;31;30;
30342;PMS5003;17145;49.902;8.680;2024-01-30T13:39:41;27;27;
30342;PMS5003;17145;49.902;8.680;2024-01-30T13:42:09;27;26;
30342;PMS5003;17145;49.902;8.680;2024-01-30T13:44:36;40;28;
30342;PMS5003;17145;49.902;8.680;2024-01-30T13:47:04;39;27;
30342;PMS5003;17145;49.902;8.680;2024-01-30T13:49:32;34;25;
30342;PMS5003;17145;49.902;8.680;2024-01-30T13:51:59;24;24;
30342;PMS5003;17145;49.902;8.680;2024-01-30T13:54:27;25;24;
30342;PMS5003;17145;49.902;8.680;2024-01-30T13:56:54;30;25;
30342;PMS5003;17145;49.902;8.680;2024-01-30T13:59:21;30;25;
30342;PMS5003;17145;49.902;8.680;2024-01-30T14:01:49;28;24;
30342;PMS5003;17145;49.902;8.680;2024-01-30T14:04:17;30;27;
30342;PMS5003;17145;49.902;8.680;2024-01-30T14:06:44;37;24;
30342;PMS5003;17145;49.902;8.680;2024-01-30T14:09:12;30;27;
30342;PMS5003;17145;49.902;8.680;2024-01-30T14:11:39;24;24;
30342;PMS5003;17145;49.902;8.680;2024-01-30T14:14:08;23;21;
30342;PMS5003;17145;49.902;8.680;2024-01-30T14:16:36;23;21;
30342;PMS5003;17145;49.902;8.680;2024-01-30T14:19:03;26;23;
30342;PMS5003;17145;49.902;8.680;2024-01-30T14:21:31;43;24;
30342;PMS5003;17145;49.902;8.680;2024-01-30T14:23:58;39;27;
30342;PMS5003;17145;49.902;8.680;2024-01-30T14:26:25;31;26;
30342;PMS5003;17145;49.902;8.680;2024-01-30T14:28:53;28;27;
30342;PMS5003;17145;49.902;8.680;2024-01-30T14:31:20;27;24;
30342;PMS5003;17145;49.902;8.680;2024-01-30T14:33:48;25;23;
30342;PMS5003;17145;49.902;8.680;2024-01-30T14:36:16;24;24;
30342;PMS5003;17145;49.902;8.680;2024-01-30T14:38:43;27;24;
30342;PMS5003;17145;49.902;8.680;2024-01-30T14:41:10;30;25;
30342;PMS5003;17145;49.902;8.680;2024-01-30T14:43:38;28;26;
30342;PMS5003;17145;49.902;8.680;2024-01-30T14:46:05;39;24;
30342;PMS5003;17145;49.902;8.680;2024-01-30T14:48:34;33;27;
30342;PMS5003;17145;49.902;8.680;2024-01-30T14:51:01;28;25;
30342;PMS5003;17145;49.902;8.680;2024-01-30T14:53:29;28;26;
30342;PMS5003;17145;49.902;8.680;2024-01-30T14:55:56;24;23;
30342;PMS5003;17145;49.902;8.680;2024-01-30T14:58:24;34;24;
30342;PMS5003;17145;49.902;8.680;2024-01-30T15:00:52;28;24;
30342;PMS5003;17145;49.902;8.680;2024-01-30T15:03:19;27;26;
30342;PMS5003;17145;49.902;8.680;2024-01-30T15:05:46;39;24;
30342;PMS5003;17145;49.902;8.680;2024-01-30T15:08:14;33;27;
30342;PMS5003;17145;49.902;8.680;2024-01-30T15:10:42;33;28;
30342;PMS5003;17145;49.902;8.680;2024-01-30T15:13:09;31;27;
30342;PMS5003;17145;49.902;8.680;2024-01-30T15:15:37;28;27;
30342;PMS5003;17145;49.902;8.680;2024-01-30T15:18:04;26;26;
30342;PMS5003;17145;49.902;8.680;2024-01-30T15:20:32;24;20;
30342;PMS5003;17145;49.902;8.680;2024-01-30T15:22:59;28;27;
30342;PMS5003;17145;49.902;8.680;2024-01-30T15:25:27;21;21;
30342;PMS5003;17145;49.902;8.680;2024-01-30T15:27:54;27;25;
30342;PMS5003;17145;49.902;8.680;2024-01-30T15:30:21;24;24;
30342;PMS5003;17145;49.902;8.680;2024-01-30T15:32:49;28;28;
30342;PMS5003;17145;49.902;8.680;2024-01-30T15:35:16;23;23;
30342;PMS5003;17145;49.902;8.680;2024-01-30T15:37:43;27;24;
30342;PMS5003;17145;49.902;8.680;2024-01-30T15:40:11;27;26;
30342;PMS5003;17145;49.902;8.680;2024-01-30T15:42:39;23;20;
30342;PMS5003;17145;49.902;8.680;2024-01-30T15:45:06;27;23;
30342;PMS5003;17145;49.902;8.680;2024-01-30T15:47:34;32;24;
30342;PMS5003;17145;49.902;8.680;2024-01-30T15:50:01;30;25;
30342;PMS5003;17145;49.902;8.680;2024-01-30T15:52:28;21;21;
30342;PMS5003;17145;49.902;8.680;2024-01-30T15:54:56;25;23;
30342;PMS5003;17145;49.902;8.680;2024-01-30T15:57:23;28;24;
30342;PMS5003;17145;49.902;8.680;2024-01-30T15:59:51;28;21;
30342;PMS5003;17145;49.902;8.680;2024-01-30T16:02:18;21;20;
30342;PMS5003;17145;49.902;8.680;2024-01-30T16:04:46;26;24;
30342;PMS5003;17145;49.902;8.680;2024-01-30T16:07:13;24;24;
30342;PMS5003;17145;49.902;8.680;2024-01-30T16:09:40;26;21;
30342;PMS5003;17145;49.902;8.680;2024-01-30T16:12:08;26;21;
30342;PMS5003;17145;49.902;8.680;2024-01-30T16:14:35;26;24;
30342;PMS5003;17145;49.902;8.680;2024-01-30T16:17:03;28;24;
30342;PMS5003;17145;49.902;8.680;2024-01-30T16:19:30;23;23;
30342;PMS5003;17145;49.902;8.680;2024-01-30T16:21:58;30;26;
30342;PMS5003;17145;49.902;8.680;2024-01-30T16:24:25;27;27;
30342;PMS5003;17145;49.902;8.680;2024-01-30T16:26:53;23;23;
30342;PMS5003;17145;49.902;8.680;2024-01-30T16:29:20;24;23;
30342;PMS5003;17145;49.902;8.680;2024-01-30T16:31:47;23;21;
30342;PMS5003;17145;49.902;8.680;2024-01-30T16:34:15;27;23;
30342;PMS5003;17145;49.902;8.680;2024-01-30T16:36:42;28;23;